Orange8 — JL6278 — position and weather

sailwx.info

Track history (hours):
 
Tides and Currents Weather Stations Pressure Air Temp Water Temp Dewpoint Dewpoint Depression Visibility Wind Speed Wind Dir Waves Ship Positions

Orange8

Last reported at 2017-Oct-17 14:48 UTC. Time now 2017-Oct-17 17:24 UTC.
Position N 34°35' E 134°53'.

Length 164 m; draft 5 m.

Type: Passenger vessel. MMSI: 431501603.

Date/timePositionNaut miles runAvg speedWind from/ knotsBaromVisibWave heightAir tempDewpointWater temp
2017-Oct-17 14:48N 34°35' E 134°53'517.9
2017-Oct-17 14:31N 34°37' E 134°58'816.6
2017-Oct-17 14:01N 34°36' E 135°08'918.9
2017-Oct-17 13:31N 34°37' E 135°20'5 9.8
2017-Oct-17 13:00N 34°37' E 135°26'0 0.0
2017-Oct-17 12:25N 34°37' E 135°26'0 0.0
2017-Oct-17 11:49N 34°37' E 135°26'0 0.0
2017-Oct-17 11:25N 34°37' E 135°26'0 0.0
2017-Oct-17 10:13N 34°37' E 135°26'0 0.0
2017-Oct-17 09:37N 34°37' E 135°26'0 0.0
2017-Oct-17 09:25N 34°37' E 135°26'0 0.0
2017-Oct-17 08:55N 34°37' E 135°26'0 0.0
2017-Oct-17 08:19N 34°37' E 135°26'0 0.0
2017-Oct-17 07:55N 34°37' E 135°26'0 0.0
2017-Oct-17 07:25N 34°37' E 135°26'0 0.0
2017-Oct-17 06:55N 34°37' E 135°26'0 0.0
2017-Oct-17 06:13N 34°37' E 135°26'0 0.0
2017-Oct-17 05:49N 34°37' E 135°26'0 0.0
2017-Oct-17 05:07N 34°37' E 135°26'0 0.0
2017-Oct-17 04:55N 34°37' E 135°26'0 0.0
2017-Oct-17 04:25N 34°37' E 135°26'0 0.0
2017-Oct-17 03:49N 34°37' E 135°26'0 0.0
2017-Oct-17 03:13N 34°37' E 135°26'0 0.0
2017-Oct-17 02:49N 34°37' E 135°26'0 0.0
2017-Oct-17 02:25N 34°37' E 135°26'0 0.0
2017-Oct-17 01:55N 34°37' E 135°26'0 0.0
2017-Oct-17 01:25N 34°37' E 135°26'0 0.0
2017-Oct-17 00:25N 34°37' E 135°26'0 0.0
2017-Oct-16 23:55N 34°37' E 135°26'0 0.0
2017-Oct-16 23:25N 34°37' E 135°26'0 0.0
2017-Oct-16 22:55N 34°37' E 135°26'0 0.0
2017-Oct-16 22:19N 34°37' E 135°26'0 0.0
2017-Oct-16 21:55N 34°37' E 135°26'0 0.0
2017-Oct-16 21:25N 34°37' E 135°26'0 0.2
2017-Oct-16 21:00N 34°37' E 135°26'611.4
2017-Oct-16 20:30N 34°36' E 135°19'918.9
2017-Oct-16 20:00N 34°35' E 135°08'917.8
2017-Oct-16 19:30N 34°36' E 134°57'2 0.1
2017-Oct-15 14:45N 34°36' E 134°55'1115.6
2017-Oct-15 14:00N 34°36' E 135°09'918.6
2017-Oct-15 13:30N 34°36' E 135°20'5 9.9
2017-Oct-15 13:00N 34°37' E 135°26'0 0.0
2017-Oct-15 12:22N 34°37' E 135°26'0 0.0
2017-Oct-15 11:52N 34°37' E 135°26'0 0.0
2017-Oct-15 09:52N 34°37' E 135°26'0 0.0
2017-Oct-15 09:28N 34°37' E 135°26'0 0.0
2017-Oct-15 08:58N 34°37' E 135°26'0 0.0
2017-Oct-15 08:28N 34°37' E 135°26'0 0.0
2017-Oct-15 07:58N 34°37' E 135°26'0 0.0
2017-Oct-15 07:28N 34°37' E 135°26'0 0.0
2017-Oct-15 06:58N 34°37' E 135°26'0 0.0
2017-Oct-15 06:28N 34°37' E 135°26'0 0.0
2017-Oct-15 05:52N 34°37' E 135°26'0 0.0
2017-Oct-15 05:28N 34°37' E 135°26'0 0.0
2017-Oct-15 04:58N 34°37' E 135°26'0 0.0
2017-Oct-15 04:22N 34°37' E 135°26'0 0.0
2017-Oct-15 03:58N 34°37' E 135°26'0 0.0
2017-Oct-15 03:28N 34°37' E 135°26'0 0.0
2017-Oct-15 02:58N 34°37' E 135°26'0 0.0
2017-Oct-15 02:22N 34°37' E 135°26'0 0.0
2017-Oct-15 01:58N 34°37' E 135°26'0 0.0
2017-Oct-15 01:28N 34°37' E 135°26'0 0.0
2017-Oct-15 00:58N 34°37' E 135°26'0 0.0
2017-Oct-15 00:28N 34°37' E 135°26'0 0.0
2017-Oct-14 23:58N 34°37' E 135°26'0 0.0
2017-Oct-14 23:28N 34°37' E 135°26'0 0.0
2017-Oct-14 22:52N 34°37' E 135°26'0 0.0
2017-Oct-14 22:28N 34°37' E 135°26'0 0.0
2017-Oct-14 21:58N 34°37' E 135°26'0 0.0
2017-Oct-14 21:17N 34°37' E 135°26'1 2.9
2017-Oct-14 21:00N 34°37' E 135°25'816.8
2017-Oct-14 20:30N 34°35' E 135°15'1020.0
2017-Oct-14 20:00N 34°36' E 135°03'917.4
2017-Oct-14 19:30N 34°34' E 134°52'1 0.0
2017-Oct-13 14:46N 34°35' E 134°53'518.1
2017-Oct-13 14:30N 34°37' E 134°58'816.5
2017-Oct-13 14:00N 34°36' E 135°08'918.3
2017-Oct-13 13:30N 34°36' E 135°19'6 9.8
2017-Oct-13 12:56N 34°37' E 135°26'0 0.0
2017-Oct-13 12:20N 34°37' E 135°26'0 0.0
2017-Oct-13 11:56N 34°37' E 135°26'0 0.0
2017-Oct-13 11:26N 34°37' E 135°26'0 0.0
2017-Oct-13 10:56N 34°37' E 135°26'0 0.0
2017-Oct-13 10:20N 34°37' E 135°26'0 0.0
2017-Oct-13 09:56N 34°37' E 135°26'0 0.0
2017-Oct-13 09:26N 34°37' E 135°26'0 0.0
2017-Oct-13 08:32N 34°37' E 135°26'0 0.0
2017-Oct-13 08:26N 34°37' E 135°26'0 0.0
2017-Oct-13 07:56N 34°37' E 135°26'0 0.0
2017-Oct-13 07:14N 34°37' E 135°26'0 0.0
2017-Oct-13 06:56N 34°37' E 135°26'0 0.0
2017-Oct-13 06:14N 34°37' E 135°26'0 0.0
2017-Oct-13 05:56N 34°37' E 135°26'0 0.0
2017-Oct-13 02:20N 34°37' E 135°26'0 0.0
2017-Oct-13 00:44N 34°37' E 135°26'0 0.0
2017-Oct-13 00:26N 34°37' E 135°26'0 0.0
2017-Oct-12 23:50N 34°37' E 135°26'0 0.0
2017-Oct-12 23:20N 34°37' E 135°26'0 0.0
2017-Oct-12 22:38N 34°37' E 135°26'0 0.0
2017-Oct-12 22:20N 34°37' E 135°26'0 0.0
2017-Oct-12 21:44N 34°37' E 135°26'0 0.0
2017-Oct-12 21:26N 34°37' E 135°26'0 0.1
2017-Oct-12 21:00N 34°37' E 135°26'612.0
2017-Oct-12 20:30N 34°36' E 135°19'917.8
2017-Oct-12 20:00N 34°35' E 135°08'918.6
2017-Oct-12 19:30N 34°36' E 134°57'24 0.5
2017-Oct-10 23:53N 34°37' E 135°26'0 0.0
2017-Oct-10 23:29N 34°37' E 135°26'0 0.0
2017-Oct-10 22:59N 34°37' E 135°26'0 0.0
2017-Oct-10 22:05N 34°37' E 135°26'0 0.0
2017-Oct-10 21:59N 34°37' E 135°26'0 0.0
2017-Oct-10 21:29N 34°37' E 135°26'0 0.0
2017-Oct-10 21:00N 34°37' E 135°26'611.1
2017-Oct-10 20:30N 34°36' E 135°19'918.2
2017-Oct-10 20:00N 34°35' E 135°08'1019.6
2017-Oct-10 19:30N 34°36' E 134°57'5 0.2
2017-Oct-09 14:51N 34°35' E 134°51'720.3
2017-Oct-09 14:30N 34°38' E 134°59'918.5
2017-Oct-09 14:00N 34°36' E 135°10'918.3
2017-Oct-09 13:30N 34°37' E 135°21'4 6.7
2017-Oct-09 12:56N 34°37' E 135°26'0 0.0
2017-Oct-09 12:08N 34°37' E 135°26'0 0.0
2017-Oct-09 11:56N 34°37' E 135°26'0 0.0
2017-Oct-09 11:26N 34°37' E 135°26'0 0.0
2017-Oct-09 10:56N 34°37' E 135°26'0 0.0
2017-Oct-09 10:26N 34°37' E 135°26'0 0.0
2017-Oct-09 09:56N 34°37' E 135°26'0 0.0
2017-Oct-09 09:20N 34°37' E 135°26'0 0.0
2017-Oct-09 08:56N 34°37' E 135°26'0 0.0
2017-Oct-09 08:20N 34°37' E 135°26'0 0.0
2017-Oct-09 07:56N 34°37' E 135°26'0 0.0
2017-Oct-09 07:26N 34°37' E 135°26'0 0.0
2017-Oct-09 06:44N 34°37' E 135°26'0 0.0
2017-Oct-09 06:26N 34°37' E 135°26'0 0.0
2017-Oct-09 05:56N 34°37' E 135°26'0 0.0
2017-Oct-09 05:26N 34°37' E 135°26'0 0.0
2017-Oct-09 04:56N 34°37' E 135°26'0 0.0
2017-Oct-09 04:26N 34°37' E 135°26'0 0.0
2017-Oct-09 03:56N 34°37' E 135°26'0 0.0
2017-Oct-09 03:20N 34°37' E 135°26'0 0.0
2017-Oct-09 02:50N 34°37' E 135°26'0 0.0
2017-Oct-09 02:20N 34°37' E 135°26'0 0.0
2017-Oct-09 01:56N 34°37' E 135°26'0 0.0
2017-Oct-09 01:26N 34°37' E 135°26'0 0.0
2017-Oct-09 00:56N 34°37' E 135°26'0 0.0
2017-Oct-09 00:26N 34°37' E 135°26'0 0.0
2017-Oct-08 23:56N 34°37' E 135°26'0 0.0
2017-Oct-08 23:26N 34°37' E 135°26'0 0.0
2017-Oct-08 22:50N 34°37' E 135°26'0 0.0
2017-Oct-08 22:26N 34°37' E 135°26'0 0.0
2017-Oct-08 21:56N 34°37' E 135°26'0 0.0
2017-Oct-08 21:26N 34°37' E 135°26'0 0.2
2017-Oct-08 21:00N 34°37' E 135°26'510.5
2017-Oct-08 20:30N 34°36' E 135°20'816.1
2017-Oct-08 20:00N 34°34' E 135°10'1019.0
2017-Oct-08 19:30N 34°37' E 134°59'  
Track history (hours):
 
Tides and Currents Weather Stations Pressure Air Temp Water Temp Dewpoint Dewpoint Depression Visibility Wind Speed Wind Dir Waves Ship Positions

Orange8

Last reported at 2017-Oct-17 14:48 UTC. Time now 2017-Oct-17 17:24 UTC.
Position N 34°35' E 134°53'.

Length 164 m; draft 5 m.

Type: Passenger vessel. MMSI: 431501603.

Date/timePositionNaut miles runAvg speedWind from/ knotsBaromVisibWave heightAir tempDewpointWater temp
2017-Oct-17 14:48N 34°35' E 134°53'517.9
2017-Oct-17 14:31N 34°37' E 134°58'816.6
2017-Oct-17 14:01N 34°36' E 135°08'918.9
2017-Oct-17 13:31N 34°37' E 135°20'5 9.8
2017-Oct-17 13:00N 34°37' E 135°26'0 0.0
2017-Oct-17 12:25N 34°37' E 135°26'0 0.0
2017-Oct-17 11:49N 34°37' E 135°26'0 0.0
2017-Oct-17 11:25N 34°37' E 135°26'0 0.0
2017-Oct-17 10:13N 34°37' E 135°26'0 0.0
2017-Oct-17 09:37N 34°37' E 135°26'0 0.0
2017-Oct-17 09:25N 34°37' E 135°26'0 0.0
2017-Oct-17 08:55N 34°37' E 135°26'0 0.0
2017-Oct-17 08:19N 34°37' E 135°26'0 0.0
2017-Oct-17 07:55N 34°37' E 135°26'0 0.0
2017-Oct-17 07:25N 34°37' E 135°26'0 0.0
2017-Oct-17 06:55N 34°37' E 135°26'0 0.0
2017-Oct-17 06:13N 34°37' E 135°26'0 0.0
2017-Oct-17 05:49N 34°37' E 135°26'0 0.0
2017-Oct-17 05:07N 34°37' E 135°26'0 0.0
2017-Oct-17 04:55N 34°37' E 135°26'0 0.0
2017-Oct-17 04:25N 34°37' E 135°26'0 0.0
2017-Oct-17 03:49N 34°37' E 135°26'0 0.0
2017-Oct-17 03:13N 34°37' E 135°26'0 0.0
2017-Oct-17 02:49N 34°37' E 135°26'0 0.0
2017-Oct-17 02:25N 34°37' E 135°26'0 0.0
2017-Oct-17 01:55N 34°37' E 135°26'0 0.0
2017-Oct-17 01:25N 34°37' E 135°26'0 0.0
2017-Oct-17 00:25N 34°37' E 135°26'0 0.0
2017-Oct-16 23:55N 34°37' E 135°26'0 0.0
2017-Oct-16 23:25N 34°37' E 135°26'0 0.0
2017-Oct-16 22:55N 34°37' E 135°26'0 0.0
2017-Oct-16 22:19N 34°37' E 135°26'0 0.0
2017-Oct-16 21:55N 34°37' E 135°26'0 0.0
2017-Oct-16 21:25N 34°37' E 135°26'0 0.2
2017-Oct-16 21:00N 34°37' E 135°26'611.4
2017-Oct-16 20:30N 34°36' E 135°19'918.9
2017-Oct-16 20:00N 34°35' E 135°08'917.8
2017-Oct-16 19:30N 34°36' E 134°57'2 0.1
2017-Oct-15 14:45N 34°36' E 134°55'1115.6
2017-Oct-15 14:00N 34°36' E 135°09'918.6
2017-Oct-15 13:30N 34°36' E 135°20'5 9.9
2017-Oct-15 13:00N 34°37' E 135°26'0 0.0
2017-Oct-15 12:22N 34°37' E 135°26'0 0.0
2017-Oct-15 11:52N 34°37' E 135°26'0 0.0
2017-Oct-15 09:52N 34°37' E 135°26'0 0.0
2017-Oct-15 09:28N 34°37' E 135°26'0 0.0
2017-Oct-15 08:58N 34°37' E 135°26'0 0.0
2017-Oct-15 08:28N 34°37' E 135°26'0 0.0
2017-Oct-15 07:58N 34°37' E 135°26'0 0.0
2017-Oct-15 07:28N 34°37' E 135°26'0 0.0
2017-Oct-15 06:58N 34°37' E 135°26'0 0.0
2017-Oct-15 06:28N 34°37' E 135°26'0 0.0
2017-Oct-15 05:52N 34°37' E 135°26'0 0.0
2017-Oct-15 05:28N 34°37' E 135°26'0 0.0
2017-Oct-15 04:58N 34°37' E 135°26'0 0.0
2017-Oct-15 04:22N 34°37' E 135°26'0 0.0
2017-Oct-15 03:58N 34°37' E 135°26'0 0.0
2017-Oct-15 03:28N 34°37' E 135°26'0 0.0
2017-Oct-15 02:58N 34°37' E 135°26'0 0.0
2017-Oct-15 02:22N 34°37' E 135°26'0 0.0
2017-Oct-15 01:58N 34°37' E 135°26'0 0.0
2017-Oct-15 01:28N 34°37' E 135°26'0 0.0
2017-Oct-15 00:58N 34°37' E 135°26'0 0.0
2017-Oct-15 00:28N 34°37' E 135°26'0 0.0
2017-Oct-14 23:58N 34°37' E 135°26'0 0.0
2017-Oct-14 23:28N 34°37' E 135°26'0 0.0
2017-Oct-14 22:52N 34°37' E 135°26'0 0.0
2017-Oct-14 22:28N 34°37' E 135°26'0 0.0
2017-Oct-14 21:58N 34°37' E 135°26'0 0.0
2017-Oct-14 21:17N 34°37' E 135°26'1 2.9
2017-Oct-14 21:00N 34°37' E 135°25'816.8
2017-Oct-14 20:30N 34°35' E 135°15'1020.0
2017-Oct-14 20:00N 34°36' E 135°03'917.4
2017-Oct-14 19:30N 34°34' E 134°52'1 0.0
2017-Oct-13 14:46N 34°35' E 134°53'518.1
2017-Oct-13 14:30N 34°37' E 134°58'816.5
2017-Oct-13 14:00N 34°36' E 135°08'918.3
2017-Oct-13 13:30N 34°36' E 135°19'6 9.8
2017-Oct-13 12:56N 34°37' E 135°26'0 0.0
2017-Oct-13 12:20N 34°37' E 135°26'0 0.0
2017-Oct-13 11:56N 34°37' E 135°26'0 0.0
2017-Oct-13 11:26N 34°37' E 135°26'0 0.0
2017-Oct-13 10:56N 34°37' E 135°26'0 0.0
2017-Oct-13 10:20N 34°37' E 135°26'0 0.0
2017-Oct-13 09:56N 34°37' E 135°26'0 0.0
2017-Oct-13 09:26N 34°37' E 135°26'0 0.0
2017-Oct-13 08:32N 34°37' E 135°26'0 0.0
2017-Oct-13 08:26N 34°37' E 135°26'0 0.0
2017-Oct-13 07:56N 34°37' E 135°26'0 0.0
2017-Oct-13 07:14N 34°37' E 135°26'0 0.0
2017-Oct-13 06:56N 34°37' E 135°26'0 0.0
2017-Oct-13 06:14N 34°37' E 135°26'0 0.0
2017-Oct-13 05:56N 34°37' E 135°26'0 0.0
2017-Oct-13 02:20N 34°37' E 135°26'0 0.0
2017-Oct-13 00:44N 34°37' E 135°26'0 0.0
2017-Oct-13 00:26N 34°37' E 135°26'0 0.0
2017-Oct-12 23:50N 34°37' E 135°26'0 0.0
2017-Oct-12 23:20N 34°37' E 135°26'0 0.0
2017-Oct-12 22:38N 34°37' E 135°26'0 0.0
2017-Oct-12 22:20N 34°37' E 135°26'0 0.0
2017-Oct-12 21:44N 34°37' E 135°26'0 0.0
2017-Oct-12 21:26N 34°37' E 135°26'0 0.1
2017-Oct-12 21:00N 34°37' E 135°26'612.0
2017-Oct-12 20:30N 34°36' E 135°19'917.8
2017-Oct-12 20:00N 34°35' E 135°08'918.6
2017-Oct-12 19:30N 34°36' E 134°57'24 0.5
2017-Oct-10 23:53N 34°37' E 135°26'0 0.0
2017-Oct-10 23:29N 34°37' E 135°26'0 0.0
2017-Oct-10 22:59N 34°37' E 135°26'0 0.0
2017-Oct-10 22:05N 34°37' E 135°26'0 0.0
2017-Oct-10 21:59N 34°37' E 135°26'0 0.0
2017-Oct-10 21:29N 34°37' E 135°26'0 0.0
2017-Oct-10 21:00N 34°37' E 135°26'611.1
2017-Oct-10 20:30N 34°36' E 135°19'918.2
2017-Oct-10 20:00N 34°35' E 135°08'1019.6
2017-Oct-10 19:30N 34°36' E 134°57'5 0.2
2017-Oct-09 14:51N 34°35' E 134°51'720.3
2017-Oct-09 14:30N 34°38' E 134°59'918.5
2017-Oct-09 14:00N 34°36' E 135°10'918.3
2017-Oct-09 13:30N 34°37' E 135°21'4 6.7
2017-Oct-09 12:56N 34°37' E 135°26'0 0.0
2017-Oct-09 12:08N 34°37' E 135°26'0 0.0
2017-Oct-09 11:56N 34°37' E 135°26'0 0.0
2017-Oct-09 11:26N 34°37' E 135°26'0 0.0
2017-Oct-09 10:56N 34°37' E 135°26'0 0.0
2017-Oct-09 10:26N 34°37' E 135°26'0 0.0
2017-Oct-09 09:56N 34°37' E 135°26'0 0.0
2017-Oct-09 09:20N 34°37' E 135°26'0 0.0
2017-Oct-09 08:56N 34°37' E 135°26'0 0.0
2017-Oct-09 08:20N 34°37' E 135°26'0 0.0
2017-Oct-09 07:56N 34°37' E 135°26'0 0.0
2017-Oct-09 07:26N 34°37' E 135°26'0 0.0
2017-Oct-09 06:44N 34°37' E 135°26'0 0.0
2017-Oct-09 06:26N 34°37' E 135°26'0 0.0
2017-Oct-09 05:56N 34°37' E 135°26'0 0.0
2017-Oct-09 05:26N 34°37' E 135°26'0 0.0
2017-Oct-09 04:56N 34°37' E 135°26'0 0.0
2017-Oct-09 04:26N 34°37' E 135°26'0 0.0
2017-Oct-09 03:56N 34°37' E 135°26'0 0.0
2017-Oct-09 03:20N 34°37' E 135°26'0 0.0
2017-Oct-09 02:50N 34°37' E 135°26'0 0.0
2017-Oct-09 02:20N 34°37' E 135°26'0 0.0
2017-Oct-09 01:56N 34°37' E 135°26'0 0.0
2017-Oct-09 01:26N 34°37' E 135°26'0 0.0
2017-Oct-09 00:56N 34°37' E 135°26'0 0.0
2017-Oct-09 00:26N 34°37' E 135°26'0 0.0
2017-Oct-08 23:56N 34°37' E 135°26'0 0.0
2017-Oct-08 23:26N 34°37' E 135°26'0 0.0
2017-Oct-08 22:50N 34°37' E 135°26'0 0.0
2017-Oct-08 22:26N 34°37' E 135°26'0 0.0
2017-Oct-08 21:56N 34°37' E 135°26'0 0.0
2017-Oct-08 21:26N 34°37' E 135°26'0 0.2
2017-Oct-08 21:00N 34°37' E 135°26'510.5
2017-Oct-08 20:30N 34°36' E 135°20'816.1
2017-Oct-08 20:00N 34°34' E 135°10'1019.0
2017-Oct-08 19:30N 34°37' E 134°59'  

Dump ship's entire track history